Terminal Aerodrome Forecast
Issued by NWS Chicago, IL

Home | Current Version | Previous Version | Graphics & Text | Print | Product List | Glossary On
Versions: 1 2 3 4 5 6 7 8 9 10 11 12 13 14 15 16 17 18 19 20 21 22 23 24 25 26 27 28 29 30
739
FTUS43 KLOT 220148 AAA
TAFRFD
TAF AMD
KRFD 220148Z 2202/2224 07004KT 3SM BR OVC003
     FM220500 34005KT 1 1/2SM BR OVC002
      TEMPO 2209/2213 1/2SM FG VV001
     FM221500 33007KT P6SM BKN015
     FM222100 34009KT P6SM BKN023=

USA.gov is the U.S. government's official web portal to all federal, state and local government web resources and services.